Tropical Cyclones
[Index]
Main Index Home Page Stock Weather Photos Extreme Storms Discussion Storm News and Storm Chasing Reports Tropical Cyclones / Hurricanes / Typhoons Weather Data and Links Wild Fires / Bushfires Weather Observation Techniques Weather Picture Catalogue Tornado Pictures and Reports Stock Video Footage and DVDs for sale
Season 2014-2015 Tropical Cyclone REUBEN Track Map
Season 2014-2015 Summaries (Operational Data): [AU] [SIO] [SPAC] [SH]
<<- Previous TC | 2014-2015 Season | Next TC ->>

click for intensity scale information  Lat/long Grid: Show Hide

 Date Labels: Show Hide

Operational Tropical Cyclone Data : JTWC Advisories

Name: REUBEN
Number: 1520

18 Mar 2015 18:00 UTC to 31 Mar 2015 18:00 UTC

    date/time    lat    long     hPa   cat  kts
2015-03-18 18   12.7   175.3W   1010         15          
2015-03-19 00   13.0   175.9W   1010         15          
2015-03-19 06   13.4   176.4W   1010         15          
2015-03-19 12   13.8   176.8W   1010         15          
2015-03-19 18   14.6   177.4W   1006         15          
2015-03-20 00   15.8   177.7W   1005         20          
2015-03-20 06   16.7   177.8W   1007         20          
2015-03-20 12   17.9   177.9W   1007         20          
2015-03-20 18   19.2   177.7W   1004         25          
2015-03-21 00   20.2   177.5W   1000         30          
2015-03-21 06   20.8   177.3W   1000         30          
2015-03-21 12   21.2   177.2W    996    1    35          
2015-03-21 18   22.6   176.0W    996    1    35          
2015-03-22 00   23.7   175.2W    996    1    40          
2015-03-22 06   25.1   174.8W    989    1    45          
2015-03-22 12   26.0   174.5W    989    1    45          
2015-03-22 18   26.4   174.1W    989    1    45          
2015-03-23 00   26.8   173.5W    996    1    35          
2015-03-23 06   26.0   173.0W   1000         30          
2015-03-23 12   26.4   171.8W   1001                     
2015-03-23 18   26.5   172.1W   1001                     
2015-03-24 00   26.6   172.1W   1002                     
2015-03-24 06   26.3   171.8W   1000         25          
2015-03-24 12   27.1   171.9W   1003                     
2015-03-24 18   27.5   172.3W   1003                     
2015-03-25 00   28.1   172.0W   1005                     
2015-03-25 06   28.3   172.2W   1004         25          
2015-03-25 12   32.0   170.2W   1005                     
2015-03-25 18   32.5   169.8W   1001         25          
2015-03-26 00   32.9   169.8W   1001                     
2015-03-26 06   33.5   169.2W    997         25          
2015-03-26 12   34.8   169.4W    999                     
2015-03-26 18   34.7   167.7W    998         25          
2015-03-27 00   35.0   167.1W    996                     
2015-03-27 06   35.3   165.4W    995         25          
2015-03-27 12   36.0   164.5W    994                     
2015-03-27 18   37.5   162.7W    995         25          
2015-03-28 00   37.5   161.8W    993                     
2015-03-28 06   38.0   160.0W    993         25          
2015-03-28 12   38.7   158.6W    992                     
2015-03-28 18   38.9   157.3W    992         25          
2015-03-29 00   37.9   156.0W    992                     
2015-03-29 06   37.6   154.4W    992         25          
2015-03-29 12   37.6   152.4W    991                     
2015-03-29 18   37.9   150.1W    992         25          
2015-03-30 00   38.5   146.9W    993                     
2015-03-30 06   42.7   142.8W    989         25          
2015-03-30 12   42.7   142.2W    988                     
2015-03-30 18   42.7   142.1W    989         25          
2015-03-31 00   42.7   142.1W    989                     
2015-03-31 06   42.7   142.6W    990                     
2015-03-31 12   42.5   139.6W    991                     
2015-03-31 18   42.5   136.7W    993                     
Winds are 10-min average.

Tropical cyclone tracks developed by Michael Bath using operational warnings and advisories and Google Maps.


[Australian Severe Weather index] [Copyright Notice] [Email Contacts] [Search This Site] [Privacy Policy]
Document: tropical_cyclone_reuben.htm Updated: 2 May 2017